sensor_id;sensor_type;location;lat;lon;timestamp;pressure;altitude;pressure_sealevel;temperature;humidity
39789;BME280;25478;42.626;23.320;2023-04-09T00:01:54;93267.69;;;4.56;100.00
39789;BME280;25478;42.626;23.320;2023-04-09T00:04:20;93241.22;;;4.42;100.00
39789;BME280;25478;42.626;23.320;2023-04-09T00:06:48;93259.94;;;4.60;100.00
39789;BME280;25478;42.626;23.320;2023-04-09T00:09:14;93261.56;;;4.64;100.00
39789;BME280;25478;42.626;23.320;2023-04-09T00:11:40;93246.41;;;4.54;100.00
39789;BME280;25478;42.626;23.320;2023-04-09T00:14:06;93268.50;;;4.72;100.00
39789;BME280;25478;42.626;23.320;2023-04-09T00:16:31;93254.69;;;4.72;100.00
39789;BME280;25478;42.626;23.320;2023-04-09T00:18:57;93273.47;;;4.77;100.00
39789;BME280;25478;42.626;23.320;2023-04-09T00:21:22;93253.34;;;4.78;100.00
39789;BME280;25478;42.626;23.320;2023-04-09T00:23:48;93266.09;;;4.79;99.98
39789;BME280;25478;42.626;23.320;2023-04-09T00:26:13;93271.19;;;4.76;100.00
39789;BME280;25478;42.626;23.320;2023-04-09T00:28:39;93269.75;;;4.78;100.00
39789;BME280;25478;42.626;23.320;2023-04-09T00:31:05;93269.47;;;4.68;100.00
39789;BME280;25478;42.626;23.320;2023-04-09T00:33:31;93271.53;;;4.74;100.00
39789;BME280;25478;42.626;23.320;2023-04-09T00:35:56;93274.56;;;4.76;100.00
39789;BME280;25478;42.626;23.320;2023-04-09T00:38:22;93269.19;;;4.85;100.00
39789;BME280;25478;42.626;23.320;2023-04-09T00:40:50;93241.47;;;4.65;100.00
39789;BME280;25478;42.626;23.320;2023-04-09T00:43:16;93272.81;;;4.80;100.00
39789;BME280;25478;42.626;23.320;2023-04-09T00:45:43;93254.69;;;4.72;100.00
39789;BME280;25478;42.626;23.320;2023-04-09T00:48:09;93266.94;;;4.84;100.00
39789;BME280;25478;42.626;23.320;2023-04-09T00:50:35;93266.59;;;4.85;100.00
39789;BME280;25478;42.626;23.320;2023-04-09T00:53:01;93274.06;;;4.87;100.00
39789;BME280;25478;42.626;23.320;2023-04-09T00:55:27;93267.50;;;4.77;100.00
39789;BME280;25478;42.626;23.320;2023-04-09T00:57:54;93274.41;;;4.85;100.00
39789;BME280;25478;42.626;23.320;2023-04-09T01:00:20;93277.59;;;4.78;100.00
39789;BME280;25478;42.626;23.320;2023-04-09T01:02:46;93262.66;;;4.63;100.00
39789;BME280;25478;42.626;23.320;2023-04-09T01:05:12;93277.41;;;4.71;100.00
39789;BME280;25478;42.626;23.320;2023-04-09T01:08:00;93279.81;;;4.64;100.00
39789;BME280;25478;42.626;23.320;2023-04-09T01:14:02;93274.00;;;4.55;100.00
39789;BME280;25478;42.626;23.320;2023-04-09T01:16:31;93269.97;;;4.45;100.00
39789;BME280;25478;42.626;23.320;2023-04-09T01:19:02;93275.63;;;4.47;100.00
39789;BME280;25478;42.626;23.320;2023-04-09T01:21:32;93281.94;;;4.46;100.00
39789;BME280;25478;42.626;23.320;2023-04-09T01:27:07;93282.25;;;4.45;100.00
39789;BME280;25478;42.626;23.320;2023-04-09T01:29:50;93269.69;;;4.35;100.00
39789;BME280;25478;42.626;23.320;2023-04-09T01:32:18;93273.81;;;4.36;100.00
39789;BME280;25478;42.626;23.320;2023-04-09T01:34:46;93273.38;;;4.46;100.00
39789;BME280;25478;42.626;23.320;2023-04-09T01:37:12;93286.69;;;4.44;100.00
39789;BME280;25478;42.626;23.320;2023-04-09T01:39:39;93284.84;;;4.45;100.00
39789;BME280;25478;42.626;23.320;2023-04-09T01:42:05;93279.47;;;4.38;100.00
39789;BME280;25478;42.626;23.320;2023-04-09T01:44:38;93285.53;;;4.42;100.00
39789;BME280;25478;42.626;23.320;2023-04-09T01:47:06;93283.34;;;4.44;100.00
39789;BME280;25478;42.626;23.320;2023-04-09T01:49:33;93280.97;;;4.39;99.88
39789;BME280;25478;42.626;23.320;2023-04-09T01:51:59;93277.06;;;4.33;100.00
39789;BME280;25478;42.626;23.320;2023-04-09T01:54:25;93282.63;;;4.31;99.90
39789;BME280;25478;42.626;23.320;2023-04-09T01:56:51;93278.63;;;4.21;100.00
39789;BME280;25478;42.626;23.320;2023-04-09T01:59:17;93284.59;;;4.22;99.99
39789;BME280;25478;42.626;23.320;2023-04-09T02:01:48;93286.22;;;4.14;100.00
39789;BME280;25478;42.626;23.320;2023-04-09T02:04:24;93287.63;;;4.12;100.00
39789;BME280;25478;42.626;23.320;2023-04-09T02:07:01;93289.38;;;4.08;100.00
39789;BME280;25478;42.626;23.320;2023-04-09T02:09:30;93278.41;;;4.02;100.00
39789;BME280;25478;42.626;23.320;2023-04-09T02:12:03;93280.16;;;3.98;99.94
39789;BME280;25478;42.626;23.320;2023-04-09T02:14:31;93264.34;;;3.79;100.00
39789;BME280;25478;42.626;23.320;2023-04-09T02:16:58;93294.06;;;3.90;100.00
39789;BME280;25478;42.626;23.320;2023-04-09T02:19:24;93280.16;;;3.86;100.00
39789;BME280;25478;42.626;23.320;2023-04-09T02:21:50;93283.84;;;3.85;99.83
39789;BME280;25478;42.626;23.320;2023-04-09T02:24:15;93257.59;;;3.65;99.92
39789;BME280;25478;42.626;23.320;2023-04-09T02:26:41;93280.38;;;3.81;99.97
39789;BME280;25478;42.626;23.320;2023-04-09T02:29:06;93276.47;;;3.75;99.86
39789;BME280;25478;42.626;23.320;2023-04-09T02:31:32;93266.25;;;3.57;100.00
39789;BME280;25478;42.626;23.320;2023-04-09T02:33:57;93269.97;;;3.56;100.00
39789;BME280;25478;42.626;23.320;2023-04-09T02:36:23;93277.22;;;3.63;100.00
39789;BME280;25478;42.626;23.320;2023-04-09T02:38:48;93271.56;;;3.61;100.00
39789;BME280;25478;42.626;23.320;2023-04-09T02:41:14;93268.00;;;3.65;100.00
39789;BME280;25478;42.626;23.320;2023-04-09T02:43:39;93280.91;;;3.62;100.00
39789;BME280;25478;42.626;23.320;2023-04-09T02:46:05;93256.72;;;3.49;100.00
39789;BME280;25478;42.626;23.320;2023-04-09T02:48:32;93241.84;;;3.37;100.00
39789;BME280;25478;42.626;23.320;2023-04-09T02:50:57;93259.97;;;3.58;99.92
39789;BME280;25478;42.626;23.320;2023-04-09T02:53:23;93263.97;;;3.68;100.00
39789;BME280;25478;42.626;23.320;2023-04-09T02:55:49;93261.06;;;3.70;99.66
39789;BME280;25478;42.626;23.320;2023-04-09T02:58:15;93250.75;;;3.61;100.00
39789;BME280;25478;42.626;23.320;2023-04-09T03:00:40;93266.59;;;3.68;99.72
39789;BME280;25478;42.626;23.320;2023-04-09T03:03:06;93267.81;;;3.71;100.00
39789;BME280;25478;42.626;23.320;2023-04-09T03:05:32;93268.84;;;3.70;99.25
39789;BME280;25478;42.626;23.320;2023-04-09T03:07:57;93255.66;;;3.62;99.40
39789;BME280;25478;42.626;23.320;2023-04-09T03:10:23;93268.00;;;3.65;99.49
39789;BME280;25478;42.626;23.320;2023-04-09T03:12:48;93259.53;;;3.56;99.66
39789;BME280;25478;42.626;23.320;2023-04-09T03:15:14;93270.72;;;3.57;99.19
39789;BME280;25478;42.626;23.320;2023-04-09T03:17:39;93251.94;;;3.51;99.45
39789;BME280;25478;42.626;23.320;2023-04-09T03:20:06;93261.25;;;3.52;99.56
39789;BME280;25478;42.626;23.320;2023-04-09T03:22:38;93265.72;;;3.52;99.50
39789;BME280;25478;42.626;23.320;2023-04-09T03:25:14;93259.97;;;3.46;99.45
39789;BME280;25478;42.626;23.320;2023-04-09T03:27:39;93258.75;;;3.44;99.57
39789;BME280;25478;42.626;23.320;2023-04-09T03:30:07;93225.69;;;3.20;99.29
39789;BME280;25478;42.626;23.320;2023-04-09T03:32:38;93259.22;;;3.46;99.31
39789;BME280;25478;42.626;23.320;2023-04-09T03:35:04;93262.13;;;3.44;99.53
39789;BME280;25478;42.626;23.320;2023-04-09T03:37:31;93264.28;;;3.42;99.64
39789;BME280;25478;42.626;23.320;2023-04-09T03:39:57;93261.25;;;3.40;99.36
39789;BME280;25478;42.626;23.320;2023-04-09T03:42:25;93256.16;;;3.31;99.58
39789;BME280;25478;42.626;23.320;2023-04-09T03:44:54;93236.72;;;3.17;99.36
39789;BME280;25478;42.626;23.320;2023-04-09T03:47:34;93238.00;;;3.10;99.57
39789;BME280;25478;42.626;23.320;2023-04-09T03:50:00;93269.50;;;3.30;99.30
39789;BME280;25478;42.626;23.320;2023-04-09T03:52:31;93263.06;;;3.27;99.31
39789;BME280;25478;42.626;23.320;2023-04-09T03:55:02;93272.53;;;3.32;99.71
39789;BME280;25478;42.626;23.320;2023-04-09T03:57:29;93274.03;;;3.33;99.57
39789;BME280;25478;42.626;23.320;2023-04-09T03:59:55;93266.13;;;3.29;99.14
39789;BME280;25478;42.626;23.320;2023-04-09T04:02:23;93269.72;;;3.37;99.22
39789;BME280;25478;42.626;23.320;2023-04-09T04:04:58;93281.66;;;3.38;99.24
39789;BME280;25478;42.626;23.320;2023-04-09T04:07:29;93270.47;;;3.37;98.86
39789;BME280;25478;42.626;23.320;2023-04-09T04:09:59;93276.13;;;3.39;98.91
39789;BME280;25478;42.626;23.320;2023-04-09T04:12:24;93280.34;;;3.44;99.36
39789;BME280;25478;42.626;23.320;2023-04-09T04:15:00;93268.88;;;3.45;98.68
39789;BME280;25478;42.626;23.320;2023-04-09T04:17:35;93276.78;;;3.49;98.95
39789;BME280;25478;42.626;23.320;2023-04-09T04:20:03;93276.34;;;3.47;98.13
39789;BME280;25478;42.626;23.320;2023-04-09T04:22:33;93268.22;;;3.48;98.46
39789;BME280;25478;42.626;23.320;2023-04-09T04:24:59;93280.91;;;3.50;98.08
39789;BME280;25478;42.626;23.320;2023-04-09T04:27:25;93273.41;;;3.48;98.39
39789;BME280;25478;42.626;23.320;2023-04-09T04:29:51;93278.84;;;3.55;98.34
39789;BME280;25478;42.626;23.320;2023-04-09T04:32:31;93280.91;;;3.62;98.38
39789;BME280;25478;42.626;23.320;2023-04-09T04:35:01;93246.41;;;3.53;98.37
39789;BME280;25478;42.626;23.320;2023-04-09T04:37:27;93279.50;;;3.89;98.06
39789;BME280;25478;42.626;23.320;2023-04-09T04:39:56;93282.75;;;4.10;97.76
39789;BME280;25478;42.626;23.320;2023-04-09T04:42:22;93270.22;;;4.28;97.35
39789;BME280;25478;42.626;23.320;2023-04-09T04:44:48;93277.78;;;4.45;97.29
39789;BME280;25478;42.626;23.320;2023-04-09T04:47:32;93278.47;;;4.70;96.24
39789;BME280;25478;42.626;23.320;2023-04-09T04:49:58;93273.75;;;4.88;95.76
39789;BME280;25478;42.626;23.320;2023-04-09T04:52:24;93279.44;;;5.06;95.16
39789;BME280;25478;42.626;23.320;2023-04-09T04:54:52;93271.97;;;5.20;94.49
39789;BME280;25478;42.626;23.320;2023-04-09T04:57:21;93266.75;;;5.36;94.26
39789;BME280;25478;42.626;23.320;2023-04-09T04:59:46;93274.72;;;5.55;93.49
39789;BME280;25478;42.626;23.320;2023-04-09T05:02:13;93281.47;;;5.72;92.92
39789;BME280;25478;42.626;23.320;2023-04-09T05:04:58;93273.28;;;5.89;92.00
39789;BME280;25478;42.626;23.320;2023-04-09T05:07:32;93256.19;;;5.92;90.73
39789;BME280;25478;42.626;23.320;2023-04-09T05:09:58;93279.84;;;6.15;90.62
39789;BME280;25478;42.626;23.320;2023-04-09T05:12:24;93277.88;;;6.28;90.61
39789;BME280;25478;42.626;23.320;2023-04-09T05:14:51;93282.91;;;6.36;90.16
39789;BME280;25478;42.626;23.320;2023-04-09T05:17:17;93285.94;;;6.38;90.58
39789;BME280;25478;42.626;23.320;2023-04-09T05:19:50;93279.75;;;6.46;91.43
39789;BME280;25478;42.626;23.320;2023-04-09T05:22:16;93291.06;;;6.51;91.22
39789;BME280;25478;42.626;23.320;2023-04-09T05:24:42;93289.13;;;6.47;91.74
39789;BME280;25478;42.626;23.320;2023-04-09T05:27:09;93266.06;;;6.34;91.62
39789;BME280;25478;42.626;23.320;2023-04-09T05:29:34;93284.56;;;6.44;91.86
39789;BME280;25478;42.626;23.320;2023-04-09T05:32:01;93288.97;;;6.40;91.93
39789;BME280;25478;42.626;23.320;2023-04-09T05:34:34;93284.56;;;6.44;92.15
39789;BME280;25478;42.626;23.320;2023-04-09T05:36:59;93267.38;;;6.43;92.31
39789;BME280;25478;42.626;23.320;2023-04-09T05:39:25;93262.19;;;6.47;92.07
39789;BME280;25478;42.626;23.320;2023-04-09T05:41:51;93284.59;;;6.64;92.39
39789;BME280;25478;42.626;23.320;2023-04-09T05:44:22;93283.50;;;6.65;91.73
39789;BME280;25478;42.626;23.320;2023-04-09T05:46:51;93289.63;;;6.72;92.05
39789;BME280;25478;42.626;23.320;2023-04-09T05:49:21;93293.41;;;6.75;91.88
39789;BME280;25478;42.626;23.320;2023-04-09T05:51:50;93286.69;;;6.74;91.52
39789;BME280;25478;42.626;23.320;2023-04-09T05:54:21;93295.00;;;6.80;90.84
39789;BME280;25478;42.626;23.320;2023-04-09T05:56:47;93292.13;;;6.85;90.42
39789;BME280;25478;42.626;23.320;2023-04-09T05:59:13;93293.34;;;6.91;90.06
39789;BME280;25478;42.626;23.320;2023-04-09T06:01:39;93286.94;;;6.88;89.75
39789;BME280;25478;42.626;23.320;2023-04-09T06:04:04;93278.69;;;6.86;89.95
39789;BME280;25478;42.626;23.320;2023-04-09T06:06:30;93292.44;;;7.02;88.21
39789;BME280;25478;42.626;23.320;2023-04-09T06:08:56;93282.25;;;7.17;88.37
39789;BME280;25478;42.626;23.320;2023-04-09T06:11:22;93287.06;;;7.34;87.69
39789;BME280;25478;42.626;23.320;2023-04-09T06:13:48;93274.31;;;7.32;87.26
39789;BME280;25478;42.626;23.320;2023-04-09T06:16:13;93294.47;;;7.51;86.64
39789;BME280;25478;42.626;23.320;2023-04-09T06:18:40;93300.44;;;7.52;85.12
39789;BME280;25478;42.626;23.320;2023-04-09T06:21:07;93278.13;;;7.39;85.29
39789;BME280;25478;42.626;23.320;2023-04-09T06:23:34;93300.56;;;7.59;85.19
39789;BME280;25478;42.626;23.320;2023-04-09T06:26:00;93268.50;;;7.43;85.18
39789;BME280;25478;42.626;23.320;2023-04-09T06:28:30;93288.63;;;7.61;84.63
39789;BME280;25478;42.626;23.320;2023-04-09T06:30:57;93297.84;;;7.75;85.05
39789;BME280;25478;42.626;23.320;2023-04-09T06:33:23;93300.69;;;7.89;85.18
39789;BME280;25478;42.626;23.320;2023-04-09T06:35:48;93298.91;;;8.19;84.98
39789;BME280;25478;42.626;23.320;2023-04-09T06:38:16;93300.19;;;8.56;83.52
39789;BME280;25478;42.626;23.320;2023-04-09T06:40:41;93298.22;;;8.79;81.09
39789;BME280;25478;42.626;23.320;2023-04-09T06:43:07;93303.75;;;9.00;80.00
39789;BME280;25478;42.626;23.320;2023-04-09T06:46:03;93311.22;;;9.32;78.85
39789;BME280;25478;42.626;23.320;2023-04-09T06:48:28;93294.94;;;9.56;77.23
39789;BME280;25478;42.626;23.320;2023-04-09T06:50:54;93299.69;;;9.81;75.07
39789;BME280;25478;42.626;23.320;2023-04-09T06:53:19;93304.31;;;9.98;72.92
39789;BME280;25478;42.626;23.320;2023-04-09T06:55:45;93300.06;;;9.83;71.54
39789;BME280;25478;42.626;23.320;2023-04-09T06:58:11;93309.06;;;9.78;70.74
39789;BME280;25478;42.626;23.320;2023-04-09T07:00:37;93310.84;;;9.67;70.31
39789;BME280;25478;42.626;23.320;2023-04-09T07:03:03;93308.22;;;9.67;69.63
39789;BME280;25478;42.626;23.320;2023-04-09T07:05:29;93297.34;;;9.72;69.66
39789;BME280;25478;42.626;23.320;2023-04-09T07:07:56;93313.69;;;9.92;68.75
39789;BME280;25478;42.626;23.320;2023-04-09T07:10:22;93312.97;;;9.99;68.13
39789;BME280;25478;42.626;23.320;2023-04-09T07:12:47;93303.72;;;10.15;67.01
39789;BME280;25478;42.626;23.320;2023-04-09T07:15:13;93310.97;;;10.26;66.60
39789;BME280;25478;42.626;23.320;2023-04-09T07:17:38;93307.28;;;10.37;66.28
39789;BME280;25478;42.626;23.320;2023-04-09T07:20:04;93296.78;;;10.41;64.63
39789;BME280;25478;42.626;23.320;2023-04-09T07:22:31;93309.47;;;10.28;65.60
39789;BME280;25478;42.626;23.320;2023-04-09T07:24:56;93320.00;;;10.28;65.03
39789;BME280;25478;42.626;23.320;2023-04-09T07:27:26;93310.63;;;10.31;64.55
39789;BME280;25478;42.626;23.320;2023-04-09T07:29:58;93316.50;;;10.17;64.36
39789;BME280;25478;42.626;23.320;2023-04-09T07:32:25;93314.22;;;10.12;64.17
39789;BME280;25478;42.626;23.320;2023-04-09T07:34:52;93322.50;;;10.14;63.59
39789;BME280;25478;42.626;23.320;2023-04-09T07:37:18;93321.03;;;10.20;64.76
39789;BME280;25478;42.626;23.320;2023-04-09T07:39:44;93321.56;;;10.36;64.88
39789;BME280;25478;42.626;23.320;2023-04-09T07:42:09;93317.06;;;10.37;64.56
39789;BME280;25478;42.626;23.320;2023-04-09T07:44:35;93319.47;;;10.12;66.15
39789;BME280;25478;42.626;23.320;2023-04-09T07:47:01;93326.78;;;9.85;67.42
39789;BME280;25478;42.626;23.320;2023-04-09T07:49:27;93330.41;;;9.73;68.43
39789;BME280;25478;42.626;23.320;2023-04-09T07:51:53;93321.44;;;9.41;68.83
39789;BME280;25478;42.626;23.320;2023-04-09T07:54:18;93336.59;;;9.17;70.73
39789;BME280;25478;42.626;23.320;2023-04-09T07:56:46;93318.34;;;8.98;71.03
39789;BME280;25478;42.626;23.320;2023-04-09T07:59:11;93327.72;;;8.99;71.15
39789;BME280;25478;42.626;23.320;2023-04-09T08:01:39;93336.88;;;9.09;71.25
39789;BME280;25478;42.626;23.320;2023-04-09T08:04:05;93334.53;;;9.03;71.84
39789;BME280;25478;42.626;23.320;2023-04-09T08:06:30;93325.91;;;9.03;71.74
39789;BME280;25478;42.626;23.320;2023-04-09T08:08:56;93343.38;;;9.22;71.22
39789;BME280;25478;42.626;23.320;2023-04-09T08:11:21;93341.28;;;9.35;71.68
39789;BME280;25478;42.626;23.320;2023-04-09T08:13:54;93343.09;;;9.64;71.17
39789;BME280;25478;42.626;23.320;2023-04-09T08:16:19;93342.41;;;9.71;69.88
39789;BME280;25478;42.626;23.320;2023-04-09T08:18:52;93321.09;;;9.42;69.75
39789;BME280;25478;42.626;23.320;2023-04-09T08:21:18;93338.47;;;9.54;70.07
39789;BME280;25478;42.626;23.320;2023-04-09T08:23:44;93349.38;;;9.56;70.13
39789;BME280;25478;42.626;23.320;2023-04-09T08:26:09;93340.75;;;9.55;69.79
39789;BME280;25478;42.626;23.320;2023-04-09T08:28:36;93340.38;;;9.57;69.89
39789;BME280;25478;42.626;23.320;2023-04-09T08:31:01;93332.94;;;9.63;69.79
39789;BME280;25478;42.626;23.320;2023-04-09T08:33:28;93339.03;;;9.74;69.11
39789;BME280;25478;42.626;23.320;2023-04-09T08:35:54;93346.78;;;9.97;67.53
39789;BME280;25478;42.626;23.320;2023-04-09T08:38:21;93342.94;;;9.87;67.33
39789;BME280;25478;42.626;23.320;2023-04-09T08:40:47;93341.66;;;9.70;68.37
39789;BME280;25478;42.626;23.320;2023-04-09T08:43:14;93337.91;;;9.71;68.74
39789;BME280;25478;42.626;23.320;2023-04-09T08:45:41;93321.75;;;9.69;69.16
39789;BME280;25478;42.626;23.320;2023-04-09T08:48:09;93325.91;;;9.74;69.32
39789;BME280;25478;42.626;23.320;2023-04-09T08:50:37;93332.31;;;9.76;69.67
39789;BME280;25478;42.626;23.320;2023-04-09T08:53:04;93335.44;;;9.89;68.68
39789;BME280;25478;42.626;23.320;2023-04-09T08:55:30;93337.63;;;9.83;68.53
39789;BME280;25478;42.626;23.320;2023-04-09T08:57:56;93318.38;;;9.69;68.76
39789;BME280;25478;42.626;23.320;2023-04-09T09:00:22;93328.41;;;9.59;69.35
39789;BME280;25478;42.626;23.320;2023-04-09T09:03:05;93327.13;;;9.46;69.49
39789;BME280;25478;42.626;23.320;2023-04-09T09:05:44;93325.44;;;9.27;69.85
39789;BME280;25478;42.626;23.320;2023-04-09T09:08:12;93328.16;;;9.35;70.25
39789;BME280;25478;42.626;23.320;2023-04-09T09:10:43;93329.38;;;9.44;70.69
39789;BME280;25478;42.626;23.320;2023-04-09T09:15:40;93314.09;;;9.57;69.97
39789;BME280;25478;42.626;23.320;2023-04-09T09:18:06;93316.03;;;9.60;70.10
39789;BME280;25478;42.626;23.320;2023-04-09T09:20:31;93309.66;;;9.65;69.09
39789;BME280;25478;42.626;23.320;2023-04-09T09:22:57;93323.91;;;9.60;68.94
39789;BME280;25478;42.626;23.320;2023-04-09T09:25:24;93326.78;;;9.48;68.96
39789;BME280;25478;42.626;23.320;2023-04-09T09:27:51;93316.06;;;9.26;68.76
39789;BME280;25478;42.626;23.320;2023-04-09T09:30:26;93301.69;;;9.17;69.29
39789;BME280;25478;42.626;23.320;2023-04-09T09:32:53;93305.56;;;9.30;69.82
39789;BME280;25478;42.626;23.320;2023-04-09T09:35:19;93311.41;;;9.50;69.09
39789;BME280;25478;42.626;23.320;2023-04-09T09:37:44;93301.22;;;9.45;68.14
39789;BME280;25478;42.626;23.320;2023-04-09T09:40:10;93307.25;;;9.45;68.22
39789;BME280;25478;42.626;23.320;2023-04-09T09:42:54;93298.22;;;9.43;68.14
39789;BME280;25478;42.626;23.320;2023-04-09T09:45:21;93299.38;;;9.49;68.52
39789;BME280;25478;42.626;23.320;2023-04-09T09:47:47;93292.72;;;9.58;68.50
39789;BME280;25478;42.626;23.320;2023-04-09T09:50:13;93295.19;;;9.81;68.30
39789;BME280;25478;42.626;23.320;2023-04-09T09:52:40;93291.59;;;10.04;67.68
39789;BME280;25478;42.626;23.320;2023-04-09T09:55:12;93287.59;;;10.21;67.36
39789;BME280;25478;42.626;23.320;2023-04-09T09:57:41;93284.34;;;10.38;65.70
39789;BME280;25478;42.626;23.320;2023-04-09T10:00:10;93286.66;;;10.47;64.94
39789;BME280;25478;42.626;23.320;2023-04-09T10:03:33;93291.13;;;10.39;64.89
39789;BME280;25478;42.626;23.320;2023-04-09T10:05:40;93282.47;;;10.38;65.43
39789;BME280;25478;42.626;23.320;2023-04-09T10:08:08;93284.81;;;10.54;65.65
39789;BME280;25478;42.626;23.320;2023-04-09T10:10:35;93283.75;;;10.62;64.59
39789;BME280;25478;42.626;23.320;2023-04-09T10:13:05;93290.91;;;10.62;62.43
39789;BME280;25478;42.626;23.320;2023-04-09T10:15:31;93280.31;;;10.51;62.39
39789;BME280;25478;42.626;23.320;2023-04-09T10:17:57;93273.13;;;10.48;62.99
39789;BME280;25478;42.626;23.320;2023-04-09T10:20:30;93269.84;;;10.65;62.99
39789;BME280;25478;42.626;23.320;2023-04-09T10:22:59;93270.69;;;10.87;61.65
39789;BME280;25478;42.626;23.320;2023-04-09T10:25:27;93276.34;;;10.93;61.22
39789;BME280;25478;42.626;23.320;2023-04-09T10:28:00;93283.53;;;10.99;60.59
39789;BME280;25478;42.626;23.320;2023-04-09T10:30:33;93282.03;;;10.95;58.35
39789;BME280;25478;42.626;23.320;2023-04-09T10:35:34;93267.03;;;11.13;57.27
39789;BME280;25478;42.626;23.320;2023-04-09T10:38:00;93273.47;;;11.34;56.27
39789;BME280;25478;42.626;23.320;2023-04-09T10:40:27;93276.56;;;11.53;55.36
39789;BME280;25478;42.626;23.320;2023-04-09T10:42:54;93264.13;;;11.61;55.13
39789;BME280;25478;42.626;23.320;2023-04-09T10:45:20;93275.78;;;11.67;54.56
39789;BME280;25478;42.626;23.320;2023-04-09T10:47:49;93269.41;;;11.75;54.26
39789;BME280;25478;42.626;23.320;2023-04-09T10:50:20;93260.03;;;11.81;53.95
39789;BME280;25478;42.626;23.320;2023-04-09T10:52:51;93257.78;;;11.87;53.61
39789;BME280;25478;42.626;23.320;2023-04-09T10:55:36;93266.44;;;12.02;52.51
39789;BME280;25478;42.626;23.320;2023-04-09T10:58:07;93270.56;;;12.10;53.27
39789;BME280;25478;42.626;23.320;2023-04-09T11:00:37;93252.47;;;12.08;53.05
39789;BME280;25478;42.626;23.320;2023-04-09T11:05:34;93205.75;;;11.91;52.58
39789;BME280;25478;42.626;23.320;2023-04-09T11:08:10;93254.72;;;12.38;52.05
39789;BME280;25478;42.626;23.320;2023-04-09T11:10:41;93253.56;;;12.47;51.53
39789;BME280;25478;42.626;23.320;2023-04-09T11:13:13;93242.66;;;12.45;50.99
39789;BME280;25478;42.626;23.320;2023-04-09T11:15:40;93223.03;;;12.38;51.31
39789;BME280;25478;42.626;23.320;2023-04-09T11:18:06;93259.59;;;12.61;50.43
39789;BME280;25478;42.626;23.320;2023-04-09T11:20:34;93249.78;;;12.55;50.83
39789;BME280;25478;42.626;23.320;2023-04-09T11:23:00;93256.19;;;12.50;51.19
39789;BME280;25478;42.626;23.320;2023-04-09T11:25:31;93253.97;;;12.45;50.72
39789;BME280;25478;42.626;23.320;2023-04-09T11:27:58;93245.28;;;12.37;50.87
39789;BME280;25478;42.626;23.320;2023-04-09T11:30:23;93244.16;;;12.38;51.04
39789;BME280;25478;42.626;23.320;2023-04-09T11:32:49;93247.94;;;12.37;50.80
39789;BME280;25478;42.626;23.320;2023-04-09T11:35:17;93238.88;;;12.31;50.96
39789;BME280;25478;42.626;23.320;2023-04-09T11:37:43;93244.19;;;12.28;50.68
39789;BME280;25478;42.626;23.320;2023-04-09T11:42:42;93240.44;;;12.04;51.76
39789;BME280;25478;42.626;23.320;2023-04-09T11:45:09;93242.69;;;11.80;52.33
39789;BME280;25478;42.626;23.320;2023-04-09T11:47:35;93247.94;;;11.63;53.01
39789;BME280;25478;42.626;23.320;2023-04-09T11:50:01;93243.38;;;11.42;53.73
39789;BME280;25478;42.626;23.320;2023-04-09T11:52:27;93241.84;;;11.26;54.55
39789;BME280;25478;42.626;23.320;2023-04-09T11:54:58;93236.91;;;11.14;55.05
39789;BME280;25478;42.626;23.320;2023-04-09T11:57:45;93229.03;;;11.11;55.61
39789;BME280;25478;42.626;23.320;2023-04-09T12:00:15;93239.94;;;11.16;56.08
39789;BME280;25478;42.626;23.320;2023-04-09T12:02:45;93236.19;;;11.21;55.94
39789;BME280;25478;42.626;23.320;2023-04-09T12:05:20;93232.06;;;11.27;55.46
39789;BME280;25478;42.626;23.320;2023-04-09T12:07:46;93220.00;;;11.26;55.44
39789;BME280;25478;42.626;23.320;2023-04-09T12:10:12;93232.06;;;11.27;55.12
39789;BME280;25478;42.626;23.320;2023-04-09T12:12:42;93224.94;;;11.38;55.22
39789;BME280;25478;42.626;23.320;2023-04-09T12:15:22;93228.34;;;11.53;55.11
39789;BME280;25478;42.626;23.320;2023-04-09T12:17:54;93223.06;;;11.64;54.52
39789;BME280;25478;42.626;23.320;2023-04-09T12:20:42;93220.44;;;11.78;53.68
39789;BME280;25478;42.626;23.320;2023-04-09T12:23:09;93226.50;;;11.82;53.84
39789;BME280;25478;42.626;23.320;2023-04-09T12:25:41;93223.84;;;11.96;53.61
39789;BME280;25478;42.626;23.320;2023-04-09T12:28:08;93228.38;;;12.06;53.62
39789;BME280;25478;42.626;23.320;2023-04-09T12:30:34;93217.78;;;12.17;52.97
39789;BME280;25478;42.626;23.320;2023-04-09T12:33:02;93220.03;;;12.29;52.96
39789;BME280;25478;42.626;23.320;2023-04-09T12:35:27;93219.28;;;12.36;52.34
39789;BME280;25478;42.626;23.320;2023-04-09T12:37:53;93213.97;;;12.43;51.84
39789;BME280;25478;42.626;23.320;2023-04-09T12:40:19;93224.53;;;12.43;51.44
39789;BME280;25478;42.626;23.320;2023-04-09T12:42:45;93218.50;;;12.39;51.50
39789;BME280;25478;42.626;23.320;2023-04-09T12:45:13;93214.72;;;12.44;51.16
39789;BME280;25478;42.626;23.320;2023-04-09T12:47:38;93203.06;;;12.37;50.98
39789;BME280;25478;42.626;23.320;2023-04-09T12:50:05;93215.09;;;12.42;50.56
39789;BME280;25478;42.626;23.320;2023-04-09T12:52:32;93214.34;;;12.34;50.85
39789;BME280;25478;42.626;23.320;2023-04-09T12:54:59;93207.25;;;12.21;51.38
39789;BME280;25478;42.626;23.320;2023-04-09T12:57:24;93192.16;;;12.10;51.37
39789;BME280;25478;42.626;23.320;2023-04-09T12:59:50;93207.59;;;12.23;51.35
39789;BME280;25478;42.626;23.320;2023-04-09T13:02:15;93197.06;;;12.12;51.70
39789;BME280;25478;42.626;23.320;2023-04-09T13:04:41;93189.50;;;12.18;51.37
39789;BME280;25478;42.626;23.320;2023-04-09T13:07:07;93199.31;;;12.28;51.18
39789;BME280;25478;42.626;23.320;2023-04-09T13:09:33;93197.03;;;12.26;51.32
39789;BME280;25478;42.626;23.320;2023-04-09T13:12:00;93206.06;;;12.32;51.57
39789;BME280;25478;42.626;23.320;2023-04-09T13:14:26;93197.03;;;12.30;51.53
39789;BME280;25478;42.626;23.320;2023-04-09T13:16:51;93194.03;;;12.28;50.72